sensor_id;sensor_type;location;lat;lon;timestamp;P1;durP1;ratioP1;P2;durP2;ratioP2
70592;SDS011;58294;42.988;20.338;2024-03-06T00:01:05;57.05;;;43.70;;
70592;SDS011;58294;42.988;20.338;2024-03-06T00:03:32;51.85;;;39.75;;
70592;SDS011;58294;42.988;20.338;2024-03-06T00:05:58;46.65;;;35.58;;
70592;SDS011;58294;42.988;20.338;2024-03-06T00:08:23;50.40;;;39.13;;
70592;SDS011;58294;42.988;20.338;2024-03-06T00:10:49;57.15;;;42.50;;
70592;SDS011;58294;42.988;20.338;2024-03-06T00:13:15;59.03;;;45.13;;
70592;SDS011;58294;42.988;20.338;2024-03-06T00:15:41;53.00;;;40.70;;
70592;SDS011;58294;42.988;20.338;2024-03-06T00:18:06;55.28;;;39.40;;
70592;SDS011;58294;42.988;20.338;2024-03-06T00:20:33;58.10;;;47.47;;
70592;SDS011;58294;42.988;20.338;2024-03-06T00:22:58;69.63;;;51.28;;
70592;SDS011;58294;42.988;20.338;2024-03-06T00:25:24;65.72;;;48.80;;
70592;SDS011;58294;42.988;20.338;2024-03-06T00:27:50;49.97;;;37.42;;
70592;SDS011;58294;42.988;20.338;2024-03-06T00:30:16;44.67;;;33.22;;
70592;SDS011;58294;42.988;20.338;2024-03-06T00:32:42;42.90;;;32.15;;
70592;SDS011;58294;42.988;20.338;2024-03-06T00:35:08;43.20;;;32.63;;
70592;SDS011;58294;42.988;20.338;2024-03-06T00:37:34;43.03;;;33.55;;
70592;SDS011;58294;42.988;20.338;2024-03-06T00:39:59;41.97;;;30.83;;
70592;SDS011;58294;42.988;20.338;2024-03-06T00:42:25;41.35;;;31.65;;
70592;SDS011;58294;42.988;20.338;2024-03-06T00:44:51;41.08;;;33.13;;
70592;SDS011;58294;42.988;20.338;2024-03-06T00:47:17;39.33;;;32.10;;
70592;SDS011;58294;42.988;20.338;2024-03-06T00:49:42;45.50;;;31.70;;
70592;SDS011;58294;42.988;20.338;2024-03-06T00:52:08;44.72;;;32.65;;
70592;SDS011;58294;42.988;20.338;2024-03-06T00:54:34;44.80;;;32.22;;
70592;SDS011;58294;42.988;20.338;2024-03-06T00:57:00;46.60;;;34.08;;
70592;SDS011;58294;42.988;20.338;2024-03-06T00:59:27;41.40;;;32.40;;
70592;SDS011;58294;42.988;20.338;2024-03-06T01:01:53;42.30;;;31.65;;
70592;SDS011;58294;42.988;20.338;2024-03-06T01:04:21;44.03;;;32.55;;
70592;SDS011;58294;42.988;20.338;2024-03-06T01:06:48;38.38;;;28.85;;
70592;SDS011;58294;42.988;20.338;2024-03-06T01:09:14;38.53;;;28.33;;
70592;SDS011;58294;42.988;20.338;2024-03-06T01:11:39;37.83;;;27.92;;
70592;SDS011;58294;42.988;20.338;2024-03-06T01:14:05;39.65;;;28.55;;
70592;SDS011;58294;42.988;20.338;2024-03-06T01:16:31;39.85;;;28.40;;
70592;SDS011;58294;42.988;20.338;2024-03-06T01:18:57;43.28;;;32.85;;
70592;SDS011;58294;42.988;20.338;2024-03-06T01:21:22;42.33;;;33.67;;
70592;SDS011;58294;42.988;20.338;2024-03-06T01:23:48;48.95;;;35.08;;
70592;SDS011;58294;42.988;20.338;2024-03-06T01:26:14;51.53;;;34.78;;
70592;SDS011;58294;42.988;20.338;2024-03-06T01:28:40;47.22;;;34.28;;
70592;SDS011;58294;42.988;20.338;2024-03-06T01:31:06;48.47;;;34.72;;
70592;SDS011;58294;42.988;20.338;2024-03-06T01:33:32;44.50;;;33.35;;
70592;SDS011;58294;42.988;20.338;2024-03-06T01:35:58;43.75;;;32.80;;
70592;SDS011;58294;42.988;20.338;2024-03-06T01:38:23;46.85;;;36.08;;
70592;SDS011;58294;42.988;20.338;2024-03-06T01:40:49;45.22;;;34.05;;
70592;SDS011;58294;42.988;20.338;2024-03-06T01:43:21;45.00;;;32.38;;
70592;SDS011;58294;42.988;20.338;2024-03-06T01:45:50;40.42;;;32.60;;
70592;SDS011;58294;42.988;20.338;2024-03-06T01:48:19;40.85;;;31.73;;
70592;SDS011;58294;42.988;20.338;2024-03-06T01:50:48;49.25;;;35.58;;
70592;SDS011;58294;42.988;20.338;2024-03-06T01:53:14;40.05;;;30.98;;
70592;SDS011;58294;42.988;20.338;2024-03-06T01:55:43;46.25;;;33.72;;
70592;SDS011;58294;42.988;20.338;2024-03-06T01:58:09;47.53;;;35.25;;
70592;SDS011;58294;42.988;20.338;2024-03-06T02:00:35;43.08;;;33.05;;
70592;SDS011;58294;42.988;20.338;2024-03-06T02:03:02;50.85;;;35.92;;
70592;SDS011;58294;42.988;20.338;2024-03-06T02:05:28;49.03;;;37.30;;
70592;SDS011;58294;42.988;20.338;2024-03-06T02:07:58;49.92;;;32.58;;
70592;SDS011;58294;42.988;20.338;2024-03-06T02:10:25;47.08;;;35.03;;
70592;SDS011;58294;42.988;20.338;2024-03-06T02:12:52;38.63;;;30.30;;
70592;SDS011;58294;42.988;20.338;2024-03-06T02:15:19;115.63;;;76.90;;
70592;SDS011;58294;42.988;20.338;2024-03-06T02:17:45;253.45;;;161.13;;
70592;SDS011;58294;42.988;20.338;2024-03-06T02:20:11;75.63;;;48.28;;
70592;SDS011;58294;42.988;20.338;2024-03-06T02:22:39;53.42;;;35.22;;
70592;SDS011;58294;42.988;20.338;2024-03-06T02:25:06;48.50;;;33.75;;
70592;SDS011;58294;42.988;20.338;2024-03-06T02:27:33;68.93;;;53.22;;
70592;SDS011;58294;42.988;20.338;2024-03-06T02:29:58;65.90;;;44.08;;
70592;SDS011;58294;42.988;20.338;2024-03-06T02:32:24;59.65;;;46.05;;
70592;SDS011;58294;42.988;20.338;2024-03-06T02:34:50;52.85;;;40.63;;
70592;SDS011;58294;42.988;20.338;2024-03-06T02:37:16;53.80;;;45.45;;
70592;SDS011;58294;42.988;20.338;2024-03-06T02:39:42;70.00;;;57.15;;
70592;SDS011;58294;42.988;20.338;2024-03-06T02:42:09;66.18;;;50.47;;
70592;SDS011;58294;42.988;20.338;2024-03-06T02:44:34;46.47;;;31.95;;
70592;SDS011;58294;42.988;20.338;2024-03-06T02:47:00;39.55;;;31.58;;
70592;SDS011;58294;42.988;20.338;2024-03-06T02:49:26;43.08;;;34.13;;
70592;SDS011;58294;42.988;20.338;2024-03-06T02:51:52;41.65;;;35.47;;
70592;SDS011;58294;42.988;20.338;2024-03-06T02:54:18;51.25;;;35.45;;
70592;SDS011;58294;42.988;20.338;2024-03-06T02:56:44;50.63;;;36.72;;
70592;SDS011;58294;42.988;20.338;2024-03-06T02:59:10;55.53;;;38.80;;
70592;SDS011;58294;42.988;20.338;2024-03-06T03:01:35;63.13;;;45.45;;
70592;SDS011;58294;42.988;20.338;2024-03-06T03:04:01;56.60;;;41.88;;
70592;SDS011;58294;42.988;20.338;2024-03-06T03:06:27;59.28;;;43.72;;
70592;SDS011;58294;42.988;20.338;2024-03-06T03:08:54;55.40;;;42.25;;
70592;SDS011;58294;42.988;20.338;2024-03-06T03:11:21;49.58;;;38.38;;
70592;SDS011;58294;42.988;20.338;2024-03-06T03:13:47;52.58;;;40.03;;
70592;SDS011;58294;42.988;20.338;2024-03-06T03:16:16;52.03;;;39.72;;
70592;SDS011;58294;42.988;20.338;2024-03-06T03:18:45;51.55;;;39.60;;
70592;SDS011;58294;42.988;20.338;2024-03-06T03:21:12;48.22;;;35.63;;
70592;SDS011;58294;42.988;20.338;2024-03-06T03:23:39;42.15;;;33.60;;
70592;SDS011;58294;42.988;20.338;2024-03-06T03:26:05;43.92;;;32.72;;
70592;SDS011;58294;42.988;20.338;2024-03-06T03:28:32;48.55;;;35.00;;
70592;SDS011;58294;42.988;20.338;2024-03-06T03:30:58;44.47;;;33.13;;
70592;SDS011;58294;42.988;20.338;2024-03-06T03:33:24;47.08;;;35.45;;
70592;SDS011;58294;42.988;20.338;2024-03-06T03:35:50;46.03;;;38.90;;
70592;SDS011;58294;42.988;20.338;2024-03-06T03:38:16;46.95;;;40.72;;
70592;SDS011;58294;42.988;20.338;2024-03-06T03:40:42;50.72;;;38.67;;
70592;SDS011;58294;42.988;20.338;2024-03-06T03:43:08;54.95;;;44.75;;
70592;SDS011;58294;42.988;20.338;2024-03-06T03:45:34;66.43;;;49.30;;
70592;SDS011;58294;42.988;20.338;2024-03-06T03:48:01;51.72;;;40.42;;
70592;SDS011;58294;42.988;20.338;2024-03-06T03:50:30;45.17;;;37.45;;
70592;SDS011;58294;42.988;20.338;2024-03-06T03:52:57;48.45;;;37.25;;
70592;SDS011;58294;42.988;20.338;2024-03-06T03:55:26;42.53;;;34.13;;
70592;SDS011;58294;42.988;20.338;2024-03-06T03:57:52;48.17;;;37.00;;
70592;SDS011;58294;42.988;20.338;2024-03-06T04:00:18;54.25;;;43.10;;
70592;SDS011;58294;42.988;20.338;2024-03-06T04:02:44;42.05;;;31.00;;
70592;SDS011;58294;42.988;20.338;2024-03-06T04:05:11;48.33;;;37.28;;
70592;SDS011;58294;42.988;20.338;2024-03-06T04:07:37;47.00;;;31.67;;
70592;SDS011;58294;42.988;20.338;2024-03-06T04:10:03;38.00;;;29.25;;
70592;SDS011;58294;42.988;20.338;2024-03-06T04:12:29;41.80;;;30.92;;
70592;SDS011;58294;42.988;20.338;2024-03-06T04:14:56;52.97;;;39.33;;
70592;SDS011;58294;42.988;20.338;2024-03-06T04:17:22;42.85;;;32.00;;
70592;SDS011;58294;42.988;20.338;2024-03-06T04:19:47;42.35;;;32.72;;
70592;SDS011;58294;42.988;20.338;2024-03-06T04:22:14;58.53;;;39.08;;
70592;SDS011;58294;42.988;20.338;2024-03-06T04:24:43;49.03;;;33.67;;
70592;SDS011;58294;42.988;20.338;2024-03-06T04:27:08;44.55;;;31.20;;
70592;SDS011;58294;42.988;20.338;2024-03-06T04:29:35;44.38;;;32.80;;
70592;SDS011;58294;42.988;20.338;2024-03-06T04:32:00;46.50;;;32.70;;
70592;SDS011;58294;42.988;20.338;2024-03-06T04:34:26;50.05;;;33.85;;
70592;SDS011;58294;42.988;20.338;2024-03-06T04:36:52;49.75;;;35.40;;
70592;SDS011;58294;42.988;20.338;2024-03-06T04:39:18;47.58;;;34.97;;
70592;SDS011;58294;42.988;20.338;2024-03-06T04:41:44;49.20;;;39.63;;
70592;SDS011;58294;42.988;20.338;2024-03-06T04:44:09;46.13;;;35.08;;
70592;SDS011;58294;42.988;20.338;2024-03-06T04:46:35;38.60;;;32.42;;
70592;SDS011;58294;42.988;20.338;2024-03-06T04:49:02;37.95;;;30.25;;
70592;SDS011;58294;42.988;20.338;2024-03-06T04:51:28;41.30;;;31.80;;
70592;SDS011;58294;42.988;20.338;2024-03-06T04:53:53;40.67;;;29.67;;
70592;SDS011;58294;42.988;20.338;2024-03-06T04:56:19;43.83;;;30.35;;
70592;SDS011;58294;42.988;20.338;2024-03-06T04:58:47;41.67;;;33.05;;
70592;SDS011;58294;42.988;20.338;2024-03-06T05:01:13;46.42;;;34.25;;
70592;SDS011;58294;42.988;20.338;2024-03-06T05:03:39;45.67;;;32.83;;
70592;SDS011;58294;42.988;20.338;2024-03-06T05:06:05;45.58;;;32.53;;
70592;SDS011;58294;42.988;20.338;2024-03-06T05:08:31;44.97;;;29.58;;
70592;SDS011;58294;42.988;20.338;2024-03-06T05:10:59;41.35;;;28.88;;
70592;SDS011;58294;42.988;20.338;2024-03-06T05:13:25;38.00;;;30.60;;
70592;SDS011;58294;42.988;20.338;2024-03-06T05:15:52;33.80;;;26.95;;
70592;SDS011;58294;42.988;20.338;2024-03-06T05:18:19;36.17;;;27.52;;
70592;SDS011;58294;42.988;20.338;2024-03-06T05:20:45;34.08;;;27.08;;
70592;SDS011;58294;42.988;20.338;2024-03-06T05:23:12;37.80;;;29.60;;
70592;SDS011;58294;42.988;20.338;2024-03-06T05:25:39;40.97;;;28.13;;
70592;SDS011;58294;42.988;20.338;2024-03-06T05:28:05;39.30;;;29.08;;
70592;SDS011;58294;42.988;20.338;2024-03-06T05:30:31;39.92;;;30.98;;
70592;SDS011;58294;42.988;20.338;2024-03-06T05:32:57;42.15;;;31.85;;
70592;SDS011;58294;42.988;20.338;2024-03-06T05:35:23;42.33;;;33.25;;
70592;SDS011;58294;42.988;20.338;2024-03-06T05:37:48;45.88;;;34.63;;
70592;SDS011;58294;42.988;20.338;2024-03-06T05:40:14;47.53;;;32.53;;
70592;SDS011;58294;42.988;20.338;2024-03-06T05:42:40;43.25;;;32.28;;
70592;SDS011;58294;42.988;20.338;2024-03-06T05:45:07;49.35;;;35.40;;
70592;SDS011;58294;42.988;20.338;2024-03-06T05:47:36;46.47;;;34.20;;
70592;SDS011;58294;42.988;20.338;2024-03-06T05:50:03;44.95;;;33.30;;
70592;SDS011;58294;42.988;20.338;2024-03-06T05:52:32;44.20;;;33.25;;
70592;SDS011;58294;42.988;20.338;2024-03-06T05:54:59;54.13;;;34.13;;
70592;SDS011;58294;42.988;20.338;2024-03-06T05:57:24;44.63;;;36.70;;
70592;SDS011;58294;42.988;20.338;2024-03-06T05:59:50;55.97;;;40.35;;
70592;SDS011;58294;42.988;20.338;2024-03-06T06:02:16;53.58;;;40.38;;
70592;SDS011;58294;42.988;20.338;2024-03-06T06:04:43;132.82;;;93.95;;
70592;SDS011;58294;42.988;20.338;2024-03-06T06:07:09;65.22;;;40.22;;
70592;SDS011;58294;42.988;20.338;2024-03-06T06:09:35;86.80;;;58.50;;
70592;SDS011;58294;42.988;20.338;2024-03-06T06:12:01;89.93;;;60.90;;
70592;SDS011;58294;42.988;20.338;2024-03-06T06:14:27;107.10;;;77.50;;
70592;SDS011;58294;42.988;20.338;2024-03-06T06:16:54;125.07;;;94.97;;
70592;SDS011;58294;42.988;20.338;2024-03-06T06:19:23;80.95;;;60.22;;
70592;SDS011;58294;42.988;20.338;2024-03-06T06:21:49;81.93;;;60.30;;
70592;SDS011;58294;42.988;20.338;2024-03-06T06:24:16;101.07;;;71.45;;
70592;SDS011;58294;42.988;20.338;2024-03-06T06:26:42;79.57;;;55.80;;
70592;SDS011;58294;42.988;20.338;2024-03-06T06:29:08;76.03;;;55.20;;
70592;SDS011;58294;42.988;20.338;2024-03-06T06:31:34;78.85;;;59.05;;
70592;SDS011;58294;42.988;20.338;2024-03-06T06:34:00;67.97;;;51.13;;
70592;SDS011;58294;42.988;20.338;2024-03-06T06:36:25;67.35;;;51.35;;
70592;SDS011;58294;42.988;20.338;2024-03-06T06:38:52;74.07;;;53.97;;
70592;SDS011;58294;42.988;20.338;2024-03-06T06:41:19;62.80;;;47.70;;
70592;SDS011;58294;42.988;20.338;2024-03-06T06:43:45;66.00;;;51.55;;
70592;SDS011;58294;42.988;20.338;2024-03-06T06:46:11;61.05;;;46.88;;
70592;SDS011;58294;42.988;20.338;2024-03-06T06:48:37;59.22;;;46.55;;
70592;SDS011;58294;42.988;20.338;2024-03-06T06:51:03;63.60;;;51.22;;
70592;SDS011;58294;42.988;20.338;2024-03-06T06:53:31;62.63;;;42.15;;
70592;SDS011;58294;42.988;20.338;2024-03-06T06:55:57;61.00;;;45.60;;
70592;SDS011;58294;42.988;20.338;2024-03-06T06:58:23;91.03;;;65.25;;
70592;SDS011;58294;42.988;20.338;2024-03-06T07:00:52;93.82;;;59.13;;
70592;SDS011;58294;42.988;20.338;2024-03-06T07:03:18;63.90;;;50.03;;
70592;SDS011;58294;42.988;20.338;2024-03-06T07:05:46;68.35;;;42.65;;
70592;SDS011;58294;42.988;20.338;2024-03-06T07:08:12;53.08;;;42.20;;
70592;SDS011;58294;42.988;20.338;2024-03-06T07:10:38;88.43;;;62.25;;
70592;SDS011;58294;42.988;20.338;2024-03-06T07:13:04;103.38;;;72.40;;
70592;SDS011;58294;42.988;20.338;2024-03-06T07:15:31;65.20;;;44.25;;
70592;SDS011;58294;42.988;20.338;2024-03-06T07:17:57;50.33;;;36.08;;
70592;SDS011;58294;42.988;20.338;2024-03-06T07:20:23;44.95;;;31.33;;
70592;SDS011;58294;42.988;20.338;2024-03-06T07:22:49;41.55;;;32.03;;
70592;SDS011;58294;42.988;20.338;2024-03-06T07:25:16;44.40;;;33.28;;
70592;SDS011;58294;42.988;20.338;2024-03-06T07:27:41;45.42;;;38.50;;
70592;SDS011;58294;42.988;20.338;2024-03-06T07:30:07;46.75;;;34.75;;
70592;SDS011;58294;42.988;20.338;2024-03-06T07:32:34;50.20;;;37.00;;
70592;SDS011;58294;42.988;20.338;2024-03-06T07:34:59;57.70;;;39.00;;
70592;SDS011;58294;42.988;20.338;2024-03-06T07:37:25;65.60;;;44.25;;
70592;SDS011;58294;42.988;20.338;2024-03-06T07:39:51;58.72;;;44.28;;
70592;SDS011;58294;42.988;20.338;2024-03-06T07:42:17;54.40;;;41.83;;
70592;SDS011;58294;42.988;20.338;2024-03-06T07:44:43;58.83;;;42.42;;
70592;SDS011;58294;42.988;20.338;2024-03-06T07:47:09;50.30;;;37.05;;
70592;SDS011;58294;42.988;20.338;2024-03-06T07:49:35;47.33;;;35.60;;
70592;SDS011;58294;42.988;20.338;2024-03-06T07:52:01;53.25;;;40.42;;
70592;SDS011;58294;42.988;20.338;2024-03-06T07:54:26;58.10;;;44.55;;
70592;SDS011;58294;42.988;20.338;2024-03-06T07:56:52;67.80;;;47.45;;
70592;SDS011;58294;42.988;20.338;2024-03-06T07:59:19;49.78;;;38.97;;
70592;SDS011;58294;42.988;20.338;2024-03-06T08:01:45;50.00;;;37.33;;
70592;SDS011;58294;42.988;20.338;2024-03-06T08:04:11;50.50;;;38.10;;
70592;SDS011;58294;42.988;20.338;2024-03-06T08:06:36;52.60;;;39.15;;
70592;SDS011;58294;42.988;20.338;2024-03-06T08:09:02;50.63;;;37.70;;
70592;SDS011;58294;42.988;20.338;2024-03-06T08:11:28;44.42;;;34.53;;
70592;SDS011;58294;42.988;20.338;2024-03-06T08:13:58;44.25;;;36.03;;
70592;SDS011;58294;42.988;20.338;2024-03-06T08:16:24;39.53;;;30.50;;
70592;SDS011;58294;42.988;20.338;2024-03-06T08:18:50;43.00;;;33.75;;
70592;SDS011;58294;42.988;20.338;2024-03-06T08:21:16;49.88;;;36.67;;
70592;SDS011;58294;42.988;20.338;2024-03-06T08:23:42;45.22;;;36.65;;
70592;SDS011;58294;42.988;20.338;2024-03-06T08:26:08;51.05;;;37.25;;
70592;SDS011;58294;42.988;20.338;2024-03-06T08:28:34;48.40;;;35.30;;
70592;SDS011;58294;42.988;20.338;2024-03-06T08:31:00;52.90;;;37.65;;
70592;SDS011;58294;42.988;20.338;2024-03-06T08:33:26;41.80;;;31.33;;
70592;SDS011;58294;42.988;20.338;2024-03-06T08:35:51;40.25;;;28.70;;
70592;SDS011;58294;42.988;20.338;2024-03-06T08:38:17;41.08;;;29.60;;
70592;SDS011;58294;42.988;20.338;2024-03-06T08:40:43;47.70;;;32.90;;
70592;SDS011;58294;42.988;20.338;2024-03-06T08:43:11;37.33;;;27.83;;
70592;SDS011;58294;42.988;20.338;2024-03-06T08:45:40;55.45;;;42.75;;
70592;SDS011;58294;42.988;20.338;2024-03-06T08:48:07;39.63;;;29.35;;
70592;SDS011;58294;42.988;20.338;2024-03-06T08:50:33;25.13;;;16.70;;
70592;SDS011;58294;42.988;20.338;2024-03-06T08:52:59;24.40;;;15.23;;
70592;SDS011;58294;42.988;20.338;2024-03-06T08:55:27;19.85;;;12.60;;
70592;SDS011;58294;42.988;20.338;2024-03-06T08:57:53;20.30;;;13.57;;
70592;SDS011;58294;42.988;20.338;2024-03-06T09:00:19;19.42;;;13.40;;
70592;SDS011;58294;42.988;20.338;2024-03-06T09:02:45;21.20;;;13.88;;
70592;SDS011;58294;42.988;20.338;2024-03-06T09:05:11;16.77;;;12.38;;
70592;SDS011;58294;42.988;20.338;2024-03-06T09:07:38;22.95;;;18.60;;
70592;SDS011;58294;42.988;20.338;2024-03-06T09:10:09;15.30;;;11.82;;
70592;SDS011;58294;42.988;20.338;2024-03-06T09:12:36;21.63;;;16.77;;
70592;SDS011;58294;42.988;20.338;2024-03-06T09:15:02;31.40;;;24.02;;
70592;SDS011;58294;42.988;20.338;2024-03-06T09:17:29;31.08;;;23.77;;
70592;SDS011;58294;42.988;20.338;2024-03-06T09:19:55;31.98;;;25.33;;
70592;SDS011;58294;42.988;20.338;2024-03-06T09:22:22;31.05;;;25.30;;
70592;SDS011;58294;42.988;20.338;2024-03-06T09:24:48;27.55;;;20.35;;
70592;SDS011;58294;42.988;20.338;2024-03-06T09:27:14;32.78;;;22.80;;
70592;SDS011;58294;42.988;20.338;2024-03-06T09:29:41;24.40;;;18.42;;
70592;SDS011;58294;42.988;20.338;2024-03-06T09:32:08;16.00;;;13.25;;
70592;SDS011;58294;42.988;20.338;2024-03-06T09:34:34;17.52;;;12.27;;
70592;SDS011;58294;42.988;20.338;2024-03-06T09:37:00;14.82;;;10.80;;
70592;SDS011;58294;42.988;20.338;2024-03-06T09:39:26;14.25;;;10.57;;
70592;SDS011;58294;42.988;20.338;2024-03-06T09:41:52;14.82;;;12.60;;
70592;SDS011;58294;42.988;20.338;2024-03-06T09:44:20;28.92;;;19.45;;
70592;SDS011;58294;42.988;20.338;2024-03-06T09:46:47;29.45;;;20.45;;
70592;SDS011;58294;42.988;20.338;2024-03-06T09:49:14;44.15;;;34.33;;
70592;SDS011;58294;42.988;20.338;2024-03-06T09:51:44;21.85;;;15.70;;
70592;SDS011;58294;42.988;20.338;2024-03-06T09:54:13;20.60;;;16.08;;
70592;SDS011;58294;42.988;20.338;2024-03-06T09:56:42;20.45;;;14.43;;
70592;SDS011;58294;42.988;20.338;2024-03-06T09:59:10;20.00;;;15.13;;
70592;SDS011;58294;42.988;20.338;2024-03-06T10:01:40;18.15;;;13.02;;
70592;SDS011;58294;42.988;20.338;2024-03-06T10:06:45;21.55;;;16.27;;
70592;SDS011;58294;42.988;20.338;2024-03-06T10:09:12;18.23;;;12.18;;
70592;SDS011;58294;42.988;20.338;2024-03-06T10:11:41;17.85;;;13.30;;
70592;SDS011;58294;42.988;20.338;2024-03-06T10:14:10;18.55;;;13.52;;
70592;SDS011;58294;42.988;20.338;2024-03-06T10:16:37;20.52;;;14.73;;
70592;SDS011;58294;42.988;20.338;2024-03-06T10:19:36;14.95;;;11.75;;
70592;SDS011;58294;42.988;20.338;2024-03-06T10:21:56;15.98;;;13.27;;
70592;SDS011;58294;42.988;20.338;2024-03-06T10:24:23;19.27;;;15.30;;
70592;SDS011;58294;42.988;20.338;2024-03-06T10:26:51;16.70;;;11.68;;
70592;SDS011;58294;42.988;20.338;2024-03-06T10:29:20;28.40;;;16.92;;
70592;SDS011;58294;42.988;20.338;2024-03-06T10:31:53;21.27;;;15.70;;
70592;SDS011;58294;42.988;20.338;2024-03-06T10:34:20;23.27;;;15.90;;
70592;SDS011;58294;42.988;20.338;2024-03-06T10:36:53;21.17;;;15.00;;
70592;SDS011;58294;42.988;20.338;2024-03-06T10:39:21;20.05;;;13.88;;
70592;SDS011;58294;42.988;20.338;2024-03-06T10:41:54;18.27;;;14.23;;
70592;SDS011;58294;42.988;20.338;2024-03-06T10:44:21;16.02;;;12.07;;
70592;SDS011;58294;42.988;20.338;2024-03-06T10:47:01;20.48;;;13.52;;
70592;SDS011;58294;42.988;20.338;2024-03-06T10:49:28;23.00;;;13.38;;
70592;SDS011;58294;42.988;20.338;2024-03-06T10:51:58;31.63;;;20.73;;
70592;SDS011;58294;42.988;20.338;2024-03-06T10:54:31;12.30;;;10.48;;
70592;SDS011;58294;42.988;20.338;2024-03-06T10:57:07;14.07;;;9.20;;
70592;SDS011;58294;42.988;20.338;2024-03-06T10:59:35;13.10;;;9.55;;
70592;SDS011;58294;42.988;20.338;2024-03-06T11:02:01;13.05;;;8.55;;
70592;SDS011;58294;42.988;20.338;2024-03-06T11:04:31;8.52;;;6.80;;
70592;SDS011;58294;42.988;20.338;2024-03-06T11:07:02;10.52;;;6.82;;
70592;SDS011;58294;42.988;20.338;2024-03-06T11:09:32;13.73;;;8.70;;
70592;SDS011;58294;42.988;20.338;2024-03-06T11:12:01;14.80;;;9.07;;
70592;SDS011;58294;42.988;20.338;2024-03-06T11:14:30;12.40;;;9.43;;
70592;SDS011;58294;42.988;20.338;2024-03-06T11:28:20;10.98;;;8.38;;
70592;SDS011;58294;42.988;20.338;2024-03-06T11:30:57;11.20;;;8.43;;
70592;SDS011;58294;42.988;20.338;2024-03-06T11:41:21;12.20;;;8.23;;
70592;SDS011;58294;42.988;20.338;2024-03-06T11:43:50;13.02;;;9.57;;
70592;SDS011;58294;42.988;20.338;2024-03-06T11:46:18;16.45;;;11.32;;
70592;SDS011;58294;42.988;20.338;2024-03-06T11:48:52;16.38;;;12.20;;
70592;SDS011;58294;42.988;20.338;2024-03-06T11:51:21;15.70;;;11.27;;
70592;SDS011;58294;42.988;20.338;2024-03-06T11:53:51;14.10;;;9.38;;
70592;SDS011;58294;42.988;20.338;2024-03-06T11:56:19;16.98;;;9.32;;
70592;SDS011;58294;42.988;20.338;2024-03-06T11:58:45;15.73;;;10.23;;
70592;SDS011;58294;42.988;20.338;2024-03-06T12:01:12;12.10;;;8.52;;
70592;SDS011;58294;42.988;20.338;2024-03-06T12:03:39;10.35;;;6.65;;
70592;SDS011;58294;42.988;20.338;2024-03-06T12:06:06;10.02;;;6.78;;
70592;SDS011;58294;42.988;20.338;2024-03-06T12:08:33;11.55;;;8.07;;
70592;SDS011;58294;42.988;20.338;2024-03-06T12:11:02;10.50;;;9.32;;
70592;SDS011;58294;42.988;20.338;2024-03-06T12:13:30;12.88;;;7.75;;
70592;SDS011;58294;42.988;20.338;2024-03-06T12:15:56;18.27;;;8.52;;
70592;SDS011;58294;42.988;20.338;2024-03-06T12:18:23;11.48;;;7.55;;
70592;SDS011;58294;42.988;20.338;2024-03-06T12:20:50;13.90;;;8.25;;
70592;SDS011;58294;42.988;20.338;2024-03-06T12:23:20;7.63;;;6.47;;
70592;SDS011;58294;42.988;20.338;2024-03-06T12:28:37;11.77;;;8.07;;
70592;SDS011;58294;42.988;20.338;2024-03-06T12:31:05;12.23;;;8.45;;
70592;SDS011;58294;42.988;20.338;2024-03-06T12:33:33;14.93;;;9.80;;
70592;SDS011;58294;42.988;20.338;2024-03-06T12:36:07;18.67;;;8.90;;
70592;SDS011;58294;42.988;20.338;2024-03-06T12:38:36;12.07;;;9.73;;
70592;SDS011;58294;42.988;20.338;2024-03-06T12:41:03;11.55;;;9.02;;
70592;SDS011;58294;42.988;20.338;2024-03-06T12:43:29;9.75;;;7.68;;
70592;SDS011;58294;42.988;20.338;2024-03-06T12:45:55;13.77;;;8.32;;
70592;SDS011;58294;42.988;20.338;2024-03-06T12:48:22;11.98;;;8.98;;
70592;SDS011;58294;42.988;20.338;2024-03-06T12:50:49;11.98;;;8.80;;
70592;SDS011;58294;42.988;20.338;2024-03-06T12:53:19;12.05;;;8.98;;
70592;SDS011;58294;42.988;20.338;2024-03-06T12:55:46;21.77;;;14.15;;
70592;SDS011;58294;42.988;20.338;2024-03-06T12:58:12;22.15;;;13.63;;
70592;SDS011;58294;42.988;20.338;2024-03-06T13:00:39;11.85;;;9.27;;
70592;SDS011;58294;42.988;20.338;2024-03-06T13:03:05;52.90;;;35.05;;
70592;SDS011;58294;42.988;20.338;2024-03-06T13:05:31;12.20;;;8.07;;
70592;SDS011;58294;42.988;20.338;2024-03-06T13:07:57;12.32;;;8.20;;
70592;SDS011;58294;42.988;20.338;2024-03-06T13:10:26;20.02;;;9.30;;
70592;SDS011;58294;42.988;20.338;2024-03-06T13:12:52;13.02;;;8.73;;
70592;SDS011;58294;42.988;20.338;2024-03-06T13:15:18;21.52;;;12.98;;
70592;SDS011;58294;42.988;20.338;2024-03-06T13:17:43;19.52;;;13.90;;
70592;SDS011;58294;42.988;20.338;2024-03-06T13:20:09;32.45;;;17.38;;
70592;SDS011;58294;42.988;20.338;2024-03-06T13:22:38;28.08;;;18.58;;
70592;SDS011;58294;42.988;20.338;2024-03-06T13:25:04;30.65;;;20.73;;
70592;SDS011;58294;42.988;20.338;2024-03-06T13:27:31;33.97;;;24.45;;
70592;SDS011;58294;42.988;20.338;2024-03-06T13:29:57;16.10;;;11.70;;
70592;SDS011;58294;42.988;20.338;2024-03-06T13:32:23;20.17;;;14.00;;
70592;SDS011;58294;42.988;20.338;2024-03-06T13:34:49;17.13;;;13.98;;
70592;SDS011;58294;42.988;20.338;2024-03-06T13:37:15;13.93;;;12.05;;
70592;SDS011;58294;42.988;20.338;2024-03-06T13:39:41;14.15;;;10.68;;
70592;SDS011;58294;42.988;20.338;2024-03-06T13:42:07;17.27;;;14.77;;
70592;SDS011;58294;42.988;20.338;2024-03-06T13:44:35;17.52;;;13.82;;
70592;SDS011;58294;42.988;20.338;2024-03-06T13:47:03;28.85;;;22.40;;
70592;SDS011;58294;42.988;20.338;2024-03-06T13:49:41;28.23;;;21.02;;
70592;SDS011;58294;42.988;20.338;2024-03-06T13:52:08;22.88;;;19.48;;
70592;SDS011;58294;42.988;20.338;2024-03-06T13:54:42;30.73;;;25.90;;
70592;SDS011;58294;42.988;20.338;2024-03-06T13:57:08;14.48;;;12.77;;
70592;SDS011;58294;42.988;20.338;2024-03-06T13:59:34;15.10;;;13.00;;
70592;SDS011;58294;42.988;20.338;2024-03-06T14:02:01;22.60;;;15.57;;
70592;SDS011;58294;42.988;20.338;2024-03-06T14:04:30;17.88;;;12.07;;
70592;SDS011;58294;42.988;20.338;2024-03-06T14:06:56;14.30;;;12.20;;
70592;SDS011;58294;42.988;20.338;2024-03-06T14:09:25;12.88;;;10.93;;
70592;SDS011;58294;42.988;20.338;2024-03-06T14:11:52;25.58;;;17.58;;
70592;SDS011;58294;42.988;20.338;2024-03-06T14:14:18;15.32;;;10.35;;
70592;SDS011;58294;42.988;20.338;2024-03-06T14:16:45;12.23;;;10.88;;
70592;SDS011;58294;42.988;20.338;2024-03-06T14:19:11;24.10;;;11.57;;
70592;SDS011;58294;42.988;20.338;2024-03-06T14:21:38;14.52;;;8.93;;
70592;SDS011;58294;42.988;20.338;2024-03-06T14:24:04;13.27;;;9.25;;
70592;SDS011;58294;42.988;20.338;2024-03-06T14:26:34;20.92;;;11.35;;
70592;SDS011;58294;42.988;20.338;2024-03-06T14:29:00;15.65;;;10.65;;
70592;SDS011;58294;42.988;20.338;2024-03-06T14:31:31;14.27;;;8.85;;
70592;SDS011;58294;42.988;20.338;2024-03-06T14:33:57;15.93;;;9.63;;